createdAt,value
2018-09-08T00:01:08.158Z,23.83
2018-09-08T00:03:38.666Z,23.63
2018-09-08T00:06:09.968Z,23.70
2018-09-08T00:08:41.396Z,24.53
2018-09-08T00:11:12.688Z,24.17
2018-09-08T00:13:44.108Z,24.23
2018-09-08T00:16:20.906Z,24.07
2018-09-08T00:18:57.259Z,23.70
2018-09-08T00:21:33.412Z,25.07
2018-09-08T00:24:09.839Z,24.30
2018-09-08T00:26:40.278Z,23.33
2018-09-08T00:29:17.940Z,24.63
2018-09-08T00:31:48.599Z,25.13
2018-09-08T00:34:19.296Z,25.43
2018-09-08T00:36:50.633Z,25.63
2018-09-08T00:39:21.609Z,25.53
2018-09-08T00:41:52.378Z,25.37
2018-09-08T00:44:23.685Z,25.40
2018-09-08T00:46:54.853Z,24.90
2018-09-08T00:49:26.062Z,23.63
2018-09-08T00:51:57.536Z,23.80
2018-09-08T00:54:29.215Z,25.77
2018-09-08T00:57:00.519Z,23.93
2018-09-08T00:59:32.753Z,24.07
2018-09-08T01:02:03.763Z,22.13
2018-09-08T01:04:37.961Z,23.67
2018-09-08T01:07:13.559Z,24.03
2018-09-08T01:09:44.937Z,22.70
2018-09-08T01:12:15.832Z,22.60
2018-09-08T01:14:47.810Z,21.03
2018-09-08T01:17:19.001Z,23.00
2018-09-08T01:19:50.461Z,21.73
2018-09-08T01:22:20.926Z,22.20
2018-09-08T01:24:51.829Z,21.63
2018-09-08T01:27:22.907Z,22.40
2018-09-08T01:29:53.837Z,21.93
2018-09-08T01:32:25.189Z,22.20
2018-09-08T01:34:56.182Z,22.03
2018-09-08T01:37:27.767Z,22.20
2018-09-08T01:39:58.965Z,22.43
2018-09-08T01:42:30.437Z,22.50
2018-09-08T01:45:01.694Z,23.63
2018-09-08T01:47:33.248Z,23.20
2018-09-08T01:50:04.174Z,24.60
2018-09-08T01:52:34.710Z,23.60
2018-09-08T01:55:05.514Z,25.37
2018-09-08T01:57:36.364Z,26.33
2018-09-08T02:00:09.396Z,26.10
2018-09-08T02:02:40.814Z,26.60
2018-09-08T02:05:12.333Z,25.90
2018-09-08T02:07:43.385Z,27.40
2018-09-08T02:10:15.259Z,25.20
2018-09-08T02:12:46.428Z,26.60
2018-09-08T02:15:17.825Z,27.90
2018-09-08T02:17:48.801Z,27.80
2018-09-08T02:20:19.787Z,26.97
2018-09-08T02:22:51.122Z,28.23
2018-09-08T02:25:21.419Z,27.00
2018-09-08T02:27:52.914Z,28.33
2018-09-08T02:30:23.909Z,28.10
2018-09-08T02:32:54.787Z,27.87
2018-09-08T02:35:26.070Z,26.00
2018-09-08T02:37:57.491Z,25.73
2018-09-08T02:40:28.756Z,26.50
2018-09-08T02:42:59.755Z,27.00
2018-09-08T02:45:31.306Z,25.30
2018-09-08T02:48:02.448Z,25.10
2018-09-08T02:50:47.031Z,26.23
2018-09-08T02:53:16.677Z,25.80
2018-09-08T02:55:45.758Z,25.90
2018-09-08T02:58:15.193Z,26.53
2018-09-08T03:00:44.989Z,26.10
2018-09-08T03:03:14.611Z,26.57
2018-09-08T03:05:44.769Z,25.63
2018-09-08T03:08:14.104Z,24.83
2018-09-08T03:10:43.584Z,25.30
2018-09-08T03:13:12.955Z,24.23
2018-09-08T03:15:41.816Z,25.40
2018-09-08T03:18:10.608Z,25.20
2018-09-08T03:20:40.185Z,23.77
2018-09-08T03:23:09.119Z,24.90
2018-09-08T03:25:38.518Z,26.17
2018-09-08T03:28:07.785Z,25.20
2018-09-08T03:30:37.017Z,24.33
2018-09-08T03:33:06.642Z,25.37
2018-09-08T03:35:35.195Z,25.07
2018-09-08T03:38:03.748Z,22.90
2018-09-08T03:40:32.366Z,23.63
2018-09-08T03:43:01.049Z,24.67
2018-09-08T03:45:29.651Z,24.33
2018-09-08T03:47:58.202Z,23.63
2018-09-08T03:50:26.903Z,24.17
2018-09-08T03:52:55.607Z,24.50
2018-09-08T03:55:24.155Z,24.03
2018-09-08T03:57:52.760Z,23.27
2018-09-08T04:00:21.451Z,25.17
2018-09-08T04:02:51.449Z,24.93
2018-09-08T04:05:21.747Z,26.60
2018-09-08T04:07:52.045Z,25.97
2018-09-08T04:10:22.153Z,25.87
2018-09-08T04:12:53.121Z,24.40
2018-09-08T04:15:23.503Z,25.87
2018-09-08T04:17:53.595Z,25.07
2018-09-08T04:20:23.869Z,25.37
2018-09-08T04:22:53.967Z,25.83
2018-09-08T04:25:24.297Z,24.20
2018-09-08T04:27:54.640Z,23.37
2018-09-08T04:30:25.033Z,24.97
2018-09-08T04:32:55.242Z,24.53
2018-09-08T04:35:25.340Z,25.70
2018-09-08T04:37:55.526Z,24.43
2018-09-08T04:40:26.147Z,22.70
2018-09-08T04:42:56.364Z,24.27
2018-09-08T04:45:26.634Z,23.00
2018-09-08T04:47:57.016Z,25.07
2018-09-08T04:50:27.502Z,24.70
2018-09-08T04:52:58.137Z,23.53
2018-09-08T04:55:28.471Z,24.00
2018-09-08T04:57:59.136Z,23.53
2018-09-08T05:00:29.571Z,22.77
2018-09-08T05:03:01.006Z,23.90
2018-09-08T05:05:31.171Z,22.70
2018-09-08T05:08:01.778Z,22.50
2018-09-08T05:10:32.606Z,22.67
2018-09-08T05:13:02.959Z,23.03
2018-09-08T05:15:33.053Z,24.40
2018-09-08T05:18:03.270Z,22.40
2018-09-08T05:20:34.176Z,21.73
2018-09-08T05:23:04.740Z,23.07
2018-09-08T05:25:35.970Z,22.57
2018-09-08T05:28:06.643Z,21.60
2018-09-08T05:30:38.099Z,22.50
2018-09-08T05:33:08.502Z,22.40
2018-09-08T05:35:38.596Z,19.60
2018-09-08T05:38:08.663Z,20.17
2018-09-08T05:40:40.003Z,20.97
2018-09-08T05:43:10.300Z,20.40
2018-09-08T05:45:40.908Z,18.97
2018-09-08T05:48:11.504Z,19.20
2018-09-08T05:50:43.013Z,17.97
2018-09-08T05:53:13.539Z,17.80
2018-09-08T05:55:43.738Z,17.10
2018-09-08T05:58:13.905Z,16.80
2018-09-08T06:00:44.169Z,15.67
2018-09-08T06:03:14.706Z,16.30
2018-09-08T06:05:44.893Z,17.50
2018-09-08T06:08:15.202Z,16.70
2018-09-08T06:10:45.531Z,16.63
2018-09-08T06:13:15.874Z,17.50
2018-09-08T06:15:46.175Z,15.90
2018-09-08T06:18:16.234Z,16.00
2018-09-08T06:20:46.518Z,16.57
2018-09-08T06:23:16.849Z,15.77
2018-09-08T06:25:47.274Z,15.87
2018-09-08T06:28:17.539Z,16.37
2018-09-08T06:30:47.786Z,17.83
2018-09-08T06:33:18.188Z,17.07
2018-09-08T06:35:48.378Z,15.00
2018-09-08T06:38:18.481Z,14.97
2018-09-08T06:40:48.920Z,14.40
2018-09-08T06:43:19.269Z,13.80
2018-09-08T06:45:49.512Z,14.73
2018-09-08T06:48:19.711Z,14.70
2018-09-08T06:50:49.978Z,15.03
2018-09-08T06:53:20.345Z,14.67
2018-09-08T06:55:50.398Z,14.53
2018-09-08T06:58:20.400Z,14.37
2018-09-08T07:00:50.726Z,14.53
2018-09-08T07:03:21.041Z,14.67
2018-09-08T07:05:51.160Z,14.53
2018-09-08T07:08:21.496Z,14.33
2018-09-08T07:10:51.888Z,14.07
2018-09-08T07:13:22.285Z,14.80
2018-09-08T07:15:52.458Z,15.50
2018-09-08T07:18:22.656Z,14.60
2018-09-08T07:20:54.347Z,14.30
2018-09-08T07:23:25.895Z,14.77
2018-09-08T07:25:56.509Z,14.67
2018-09-08T07:28:26.767Z,13.80
2018-09-08T07:30:57.206Z,13.67
2018-09-08T07:33:27.379Z,14.03
2018-09-08T07:35:57.598Z,15.20
2018-09-08T07:38:27.753Z,14.37
2018-09-08T07:40:58.169Z,14.00
2018-09-08T07:43:28.458Z,14.17
2018-09-08T07:45:58.798Z,13.77
2018-09-08T07:48:29.353Z,13.87
2018-09-08T07:50:59.513Z,14.07
2018-09-08T07:53:29.762Z,13.83
2018-09-08T07:56:00.081Z,14.33
2018-09-08T07:58:30.105Z,13.00
2018-09-08T08:01:01.431Z,13.10
2018-09-08T08:03:31.786Z,13.33
2018-09-08T08:06:01.764Z,13.90
2018-09-08T08:08:32.035Z,13.53
2018-09-08T08:11:02.433Z,14.07
2018-09-08T08:13:32.695Z,13.53
2018-09-08T08:16:02.809Z,13.27
2018-09-08T08:18:32.882Z,13.53
2018-09-08T08:21:03.179Z,13.30
2018-09-08T08:23:33.602Z,13.50
2018-09-08T08:26:07.736Z,13.53
2018-09-08T08:28:38.294Z,12.50
2018-09-08T08:31:08.959Z,13.97
2018-09-08T08:33:39.496Z,13.67
2018-09-08T08:36:09.822Z,12.87
2018-09-08T08:38:40.037Z,14.00
2018-09-08T08:41:10.454Z,13.07
2018-09-08T08:43:40.808Z,13.77
2018-09-08T08:46:11.216Z,13.23
2018-09-08T08:48:41.531Z,12.70
2018-09-08T08:51:22.629Z,13.17
2018-09-08T08:54:03.579Z,12.87
2018-09-08T08:56:33.622Z,13.30
2018-09-08T08:59:04.333Z,13.23
2018-09-08T09:01:35.370Z,12.67
2018-09-08T09:04:05.601Z,12.17
2018-09-08T09:06:36.538Z,12.07
2018-09-08T09:09:11.757Z,12.27
2018-09-08T09:11:41.805Z,12.73
2018-09-08T09:14:12.575Z,12.47
2018-09-08T09:16:42.982Z,12.37
2018-09-08T09:19:34.138Z,12.03
2018-09-08T09:22:16.600Z,12.87
2018-09-08T09:24:51.250Z,12.20
2018-09-08T09:27:21.484Z,12.10
2018-09-08T09:29:51.763Z,11.77
2018-09-08T09:32:22.165Z,11.73
2018-09-08T09:34:53.500Z,12.10
2018-09-08T09:37:23.824Z,12.10
2018-09-08T09:39:54.742Z,11.53
2018-09-08T09:42:25.216Z,11.17
2018-09-08T09:44:55.797Z,11.57
2018-09-08T09:47:26.185Z,12.03
2018-09-08T09:49:56.781Z,10.97
2018-09-08T09:52:27.338Z,11.20
2018-09-08T09:54:57.880Z,11.93
2018-09-08T09:57:28.037Z,12.30
2018-09-08T09:59:58.612Z,12.43
2018-09-08T10:02:39.595Z,11.57
2018-09-08T10:05:12.762Z,11.60
2018-09-08T10:07:42.741Z,10.80
2018-09-08T10:10:14.407Z,10.75
2018-09-08T10:12:44.957Z,11.33
2018-09-08T10:15:15.151Z,10.45
2018-09-08T10:17:45.848Z,10.65
2018-09-08T10:20:17.792Z,10.68
2018-09-08T10:22:48.026Z,11.50
2018-09-08T10:25:19.425Z,11.63
2018-09-08T10:27:50.216Z,11.20
2018-09-08T10:30:20.464Z,11.00
2018-09-08T10:32:50.729Z,10.50
2018-09-08T10:35:21.211Z,10.57
2018-09-08T10:37:51.335Z,10.47
2018-09-08T10:40:21.979Z,11.00
2018-09-08T10:42:52.398Z,12.20
2018-09-08T10:45:22.717Z,11.37
2018-09-08T10:47:53.348Z,11.47
2018-09-08T10:50:23.486Z,10.23
2018-09-08T10:52:53.973Z,12.97
2018-09-08T10:55:24.014Z,13.00
2018-09-08T10:57:54.154Z,11.63
2018-09-08T11:00:24.362Z,12.00
2018-09-08T11:02:54.920Z,11.93
2018-09-08T11:05:25.178Z,10.90
2018-09-08T11:07:55.184Z,11.33
2018-09-08T11:10:25.586Z,11.77
2018-09-08T11:12:56.005Z,10.80
2018-09-08T11:15:26.314Z,10.88
2018-09-08T11:17:56.524Z,11.45
2018-09-08T11:20:27.056Z,11.03
2018-09-08T11:22:57.885Z,9.65
2018-09-08T11:25:28.215Z,10.28
2018-09-08T11:27:58.824Z,10.80
2018-09-08T11:30:29.300Z,9.83
2018-09-08T11:32:59.614Z,10.20
2018-09-08T11:35:29.814Z,9.68
2018-09-08T11:37:59.832Z,9.25
2018-09-08T11:40:30.585Z,9.95
2018-09-08T11:43:01.010Z,9.68
2018-09-08T11:45:31.299Z,9.35
2018-09-08T11:48:01.630Z,8.90
2018-09-08T11:50:31.739Z,9.45
2018-09-08T11:53:02.038Z,9.25
2018-09-08T11:55:32.234Z,8.83
2018-09-08T11:58:02.421Z,8.95
2018-09-08T12:00:32.632Z,8.55
2018-09-08T12:03:02.876Z,9.10
2018-09-08T12:05:33.279Z,9.25
2018-09-08T12:08:03.499Z,9.95
2018-09-08T12:10:33.889Z,8.78
2018-09-08T12:13:04.330Z,9.55
2018-09-08T12:15:34.617Z,9.28
2018-09-08T12:18:04.736Z,9.45
2018-09-08T12:20:35.065Z,10.05
2018-09-08T12:23:05.898Z,9.98
2018-09-08T12:25:35.963Z,9.23
2018-09-08T12:28:06.280Z,10.05
2018-09-08T12:30:36.606Z,10.08
2018-09-08T12:33:07.913Z,10.30
2018-09-08T12:35:38.015Z,10.78
2018-09-08T12:38:07.981Z,10.00
2018-09-08T12:40:38.511Z,9.68
2018-09-08T12:43:08.823Z,9.28
2018-09-08T12:45:39.274Z,9.50
2018-09-08T12:48:10.606Z,10.00
2018-09-08T12:50:41.104Z,9.83
2018-09-08T12:53:11.805Z,9.93
2018-09-08T12:55:42.041Z,10.07
2018-09-08T12:58:12.411Z,10.37
2018-09-08T13:00:42.950Z,9.83
2018-09-08T13:03:13.494Z,9.97
2018-09-08T13:05:43.989Z,9.53
2018-09-08T13:08:14.125Z,9.83
2018-09-08T13:10:44.433Z,9.27
2018-09-08T13:13:15.239Z,8.77
2018-09-08T13:15:45.317Z,9.23
2018-09-08T13:18:15.588Z,10.00
2018-09-08T13:20:45.896Z,9.20
2018-09-08T13:23:17.301Z,9.43
2018-09-08T13:25:47.520Z,8.77
2018-09-08T13:28:17.980Z,9.80
2018-09-08T13:30:48.172Z,9.20
2018-09-08T13:33:18.468Z,8.30
2018-09-08T13:35:48.750Z,9.13
2018-09-08T13:38:19.060Z,8.47
2018-09-08T13:40:49.281Z,8.37
2018-09-08T13:43:19.575Z,8.30
2018-09-08T13:45:50.308Z,7.97
2018-09-08T13:48:20.856Z,8.57
2018-09-08T13:50:51.510Z,7.53
2018-09-08T13:53:21.959Z,7.70
2018-09-08T13:55:52.206Z,7.67
2018-09-08T13:58:22.293Z,7.90
2018-09-08T14:00:52.798Z,7.50
2018-09-08T14:03:23.325Z,8.00
2018-09-08T14:05:54.364Z,7.53
2018-09-08T14:08:24.442Z,7.93
2018-09-08T14:10:54.770Z,7.50
2018-09-08T14:13:25.048Z,8.33
2018-09-08T14:15:55.346Z,7.87
2018-09-08T14:18:25.497Z,8.13
2018-09-08T14:20:55.816Z,8.50
2018-09-08T14:23:26.244Z,8.30
2018-09-08T14:25:56.413Z,8.13
2018-09-08T14:28:27.243Z,7.90
2018-09-08T14:30:57.663Z,7.90
2018-09-08T14:33:28.019Z,8.27
2018-09-08T14:35:58.347Z,7.57
2018-09-08T14:38:28.331Z,7.40
2018-09-08T14:40:58.736Z,7.77
2018-09-08T14:43:29.185Z,8.43
2018-09-08T14:45:59.531Z,8.83
2018-09-08T14:48:29.865Z,8.97
2018-09-08T14:51:00.475Z,8.80
2018-09-08T14:53:31.018Z,7.90
2018-09-08T14:56:01.158Z,9.47
2018-09-08T14:58:31.344Z,8.93
2018-09-08T15:01:01.662Z,8.60
2018-09-08T15:03:32.046Z,7.80
2018-09-08T15:06:02.408Z,7.50
2018-09-08T15:08:32.617Z,7.10
2018-09-08T15:11:02.938Z,6.23
2018-09-08T15:13:33.138Z,6.60
2018-09-08T15:16:03.346Z,7.90
2018-09-08T15:18:33.857Z,7.97
2018-09-08T15:21:04.213Z,7.70
2018-09-08T15:23:34.743Z,8.27
2018-09-08T15:26:05.411Z,7.90
2018-09-08T15:28:35.585Z,8.77
2018-09-08T15:31:05.933Z,8.63
2018-09-08T15:33:36.387Z,8.67
2018-09-08T15:36:06.545Z,9.03
2018-09-08T15:38:36.488Z,8.40
2018-09-08T15:41:06.667Z,9.00
2018-09-08T15:43:36.979Z,8.93
2018-09-08T15:46:07.364Z,9.50
2018-09-08T15:48:37.670Z,9.40
2018-09-08T15:51:07.869Z,9.80
2018-09-08T15:53:38.271Z,8.20
2018-09-08T15:56:08.535Z,8.93
2018-09-08T15:58:38.646Z,9.63
2018-09-08T16:01:08.897Z,10.27
2018-09-08T16:03:39.165Z,9.57
2018-09-08T16:06:09.329Z,9.77
2018-09-08T16:08:39.165Z,10.30
2018-09-08T16:11:09.708Z,10.50
2018-09-08T16:13:39.981Z,10.30
2018-09-08T16:16:09.926Z,10.97
2018-09-08T16:18:40.207Z,11.17
2018-09-08T16:21:10.511Z,10.53
2018-09-08T16:23:40.612Z,10.77
2018-09-08T16:26:10.815Z,10.50
2018-09-08T16:28:41.182Z,10.53
2018-09-08T16:31:11.483Z,11.13
2018-09-08T16:33:41.571Z,11.20
2018-09-08T16:36:11.555Z,10.87
2018-09-08T16:38:41.971Z,10.73
2018-09-08T16:41:12.369Z,11.20
2018-09-08T16:43:42.795Z,10.70
2018-09-08T16:46:12.864Z,10.57
2018-09-08T16:48:43.272Z,11.00
2018-09-08T16:51:13.420Z,10.70
2018-09-08T16:53:43.726Z,10.50
2018-09-08T16:56:13.811Z,11.13
2018-09-08T16:58:44.160Z,10.50
2018-09-08T17:01:14.434Z,10.77
2018-09-08T17:03:44.852Z,10.40
2018-09-08T17:06:15.155Z,11.07
2018-09-08T17:08:45.174Z,10.73
2018-09-08T17:11:15.481Z,10.77
2018-09-08T17:13:45.835Z,11.10
2018-09-08T17:16:15.923Z,11.17
2018-09-08T17:18:46.165Z,10.73
2018-09-08T17:21:16.487Z,12.30
2018-09-08T17:23:46.829Z,10.83
2018-09-08T17:26:17.156Z,11.60
2018-09-08T17:28:47.422Z,11.73
2018-09-08T17:31:17.955Z,11.77
2018-09-08T17:33:48.542Z,11.37
2018-09-08T17:36:18.713Z,11.87
2018-09-08T17:38:48.938Z,11.30
2018-09-08T17:41:19.044Z,11.57
2018-09-08T17:43:49.582Z,11.47
2018-09-08T17:46:21.295Z,12.07
2018-09-08T17:48:52.269Z,12.40
2018-09-08T17:51:24.443Z,12.70
2018-09-08T17:53:56.051Z,13.10
2018-09-08T17:56:27.717Z,12.40
2018-09-08T17:58:59.285Z,12.63
2018-09-08T18:01:30.286Z,14.00
2018-09-08T18:04:02.344Z,11.77
2018-09-08T18:06:34.034Z,13.37
2018-09-08T18:09:05.722Z,12.73
2018-09-08T18:11:37.565Z,12.67
2018-09-08T18:14:07.940Z,13.67
2018-09-08T18:16:38.109Z,13.83
2018-09-08T18:19:08.674Z,13.80
2018-09-08T18:21:39.919Z,13.70
2018-09-08T18:24:10.163Z,13.23
2018-09-08T18:26:40.946Z,13.13
2018-09-08T18:29:11.333Z,14.07
2018-09-08T18:31:41.707Z,12.93
2018-09-08T18:34:11.965Z,13.93
2018-09-08T18:36:42.718Z,14.63
2018-09-08T18:39:13.156Z,13.53
2018-09-08T18:41:43.515Z,13.50
2018-09-08T18:44:13.907Z,13.47
2018-09-08T18:46:44.287Z,14.07
2018-09-08T18:49:14.727Z,13.37
2018-09-08T18:51:45.215Z,14.13
2018-09-08T18:54:15.727Z,14.37
2018-09-08T18:56:45.963Z,14.67
2018-09-08T18:59:16.403Z,17.20
2018-09-08T19:01:47.198Z,14.97
2018-09-08T19:04:17.765Z,14.20
2018-09-08T19:06:51.435Z,14.37
2018-09-08T19:09:21.887Z,14.27
2018-09-08T19:11:52.037Z,13.87
2018-09-08T19:14:27.199Z,14.37
2018-09-08T19:16:57.621Z,13.93
2018-09-08T19:19:28.014Z,14.83
2018-09-08T19:21:58.937Z,14.70
2018-09-08T19:24:34.329Z,14.60
2018-09-08T19:27:04.430Z,14.93
2018-09-08T19:29:40.389Z,15.40
2018-09-08T19:32:10.490Z,14.90
2018-09-08T19:34:40.696Z,14.10
2018-09-08T19:37:11.100Z,13.97
2018-09-08T19:39:41.479Z,14.77
2018-09-08T19:42:11.973Z,14.80
2018-09-08T19:44:43.467Z,13.70
2018-09-08T19:47:18.803Z,14.37
2018-09-08T19:49:50.154Z,15.87
2018-09-08T19:52:25.162Z,15.50
2018-09-08T19:54:55.335Z,14.47
2018-09-08T19:57:30.733Z,15.90
2018-09-08T20:00:00.858Z,15.70
2018-09-08T20:02:31.438Z,15.53
2018-09-08T20:05:01.918Z,15.47
2018-09-08T20:07:32.662Z,16.20
2018-09-08T20:10:03.260Z,15.60
2018-09-08T20:12:34.372Z,15.33
2018-09-08T20:15:04.533Z,15.63
2018-09-08T20:17:34.770Z,15.30
2018-09-08T20:20:06.620Z,13.97
2018-09-08T20:22:37.027Z,15.50
2018-09-08T20:25:07.700Z,14.33
2018-09-08T20:27:38.067Z,15.27
2018-09-08T20:30:09.371Z,15.30
2018-09-08T20:32:39.597Z,16.30
2018-09-08T20:35:09.975Z,16.67
2018-09-08T20:37:40.434Z,14.37
2018-09-08T20:40:10.798Z,15.27
2018-09-08T20:42:41.111Z,13.70
2018-09-08T20:45:11.544Z,15.93
2018-09-08T20:47:42.905Z,15.53
2018-09-08T20:50:14.769Z,15.93
2018-09-08T20:52:46.323Z,16.43
2018-09-08T20:55:18.150Z,15.50
2018-09-08T20:57:50.191Z,15.17
2018-09-08T21:00:21.959Z,15.27
2018-09-08T21:02:53.876Z,15.77
2018-09-08T21:05:25.692Z,15.20
2018-09-08T21:07:57.407Z,15.87
2018-09-08T21:10:29.249Z,15.93
2018-09-08T21:13:00.908Z,14.97
2018-09-08T21:15:32.358Z,16.03
2018-09-08T21:18:04.342Z,15.63
2018-09-08T21:20:36.378Z,15.40
2018-09-08T21:23:08.375Z,15.20
2018-09-08T21:25:40.167Z,16.33
2018-09-08T21:28:11.753Z,16.27
2018-09-08T21:30:43.930Z,16.77
2018-09-08T21:33:16.014Z,16.53
2018-09-08T21:35:48.134Z,17.03
2018-09-08T21:38:19.709Z,17.70
2018-09-08T21:40:51.313Z,18.20
2018-09-08T21:43:22.865Z,19.17
2018-09-08T21:45:54.637Z,17.90
2018-09-08T21:48:26.269Z,19.17
2018-09-08T21:50:58.328Z,18.67
2018-09-08T21:53:30.188Z,19.07
2018-09-08T21:56:02.337Z,19.50
2018-09-08T21:58:34.287Z,18.47
2018-09-08T22:01:11.054Z,18.93
2018-09-08T22:03:42.987Z,17.77
2018-09-08T22:06:14.399Z,17.10
2018-09-08T22:08:46.272Z,18.40
2018-09-08T22:11:17.924Z,18.77
2018-09-08T22:13:49.844Z,17.27
2018-09-08T22:16:22.894Z,18.13
2018-09-08T22:18:54.604Z,18.40
2018-09-08T22:21:26.355Z,17.00
2018-09-08T22:23:57.923Z,16.00
2018-09-08T22:26:29.574Z,17.33
2018-09-08T22:29:01.177Z,17.20
2018-09-08T22:31:32.805Z,17.20
2018-09-08T22:34:04.588Z,18.13
2018-09-08T22:36:36.535Z,16.43
2018-09-08T22:39:09.559Z,16.60
2018-09-08T22:41:41.388Z,17.53
2018-09-08T22:44:12.572Z,17.33
2018-09-08T22:46:43.576Z,17.30
2018-09-08T22:49:15.275Z,17.47
2018-09-08T22:51:46.189Z,16.63
2018-09-08T22:54:17.404Z,17.03
2018-09-08T22:56:48.821Z,18.03
2018-09-08T22:59:20.698Z,17.73
2018-09-08T23:01:52.853Z,16.30
2018-09-08T23:04:24.228Z,16.90
2018-09-08T23:06:55.679Z,16.77
2018-09-08T23:09:27.185Z,18.03
2018-09-08T23:11:58.779Z,16.37
2018-09-08T23:14:30.225Z,17.70
2018-09-08T23:17:01.687Z,18.70
2018-09-08T23:19:34.166Z,17.73
2018-09-08T23:22:04.941Z,17.27
2018-09-08T23:24:36.424Z,17.33
2018-09-08T23:27:07.697Z,17.10
2018-09-08T23:29:39.269Z,18.03
2018-09-08T23:32:10.521Z,17.23
2018-09-08T23:34:41.558Z,17.67
2018-09-08T23:37:12.960Z,17.23
2018-09-08T23:39:44.091Z,17.43
2018-09-08T23:42:14.946Z,17.13
2018-09-08T23:44:45.908Z,17.93
2018-09-08T23:47:16.963Z,17.93
2018-09-08T23:49:48.516Z,20.07
2018-09-08T23:52:19.696Z,19.00
2018-09-08T23:54:51.682Z,18.07
2018-09-08T23:57:23.164Z,19.50
2018-09-08T23:59:54.903Z,19.67
